createdAt,value
2018-08-03T10:49:36.652Z,32.50
2018-08-03T10:52:05.356Z,32.60
2018-08-03T10:54:35.679Z,32.70
2018-08-03T10:57:04.391Z,32.60
2018-08-03T10:59:32.887Z,32.60
2018-08-03T11:02:01.312Z,32.60
2018-08-03T11:04:29.742Z,32.70
2018-08-03T11:06:58.291Z,32.80
2018-08-03T11:09:27.099Z,33.00
2018-08-03T11:11:55.837Z,33.10
2018-08-03T11:14:24.414Z,33.20
2018-08-03T11:16:52.858Z,33.20
2018-08-03T11:19:21.364Z,33.10
2018-08-03T11:21:49.835Z,32.80
2018-08-03T11:24:18.297Z,33.00
2018-08-03T11:31:43.105Z,33.40
2018-08-03T11:34:11.564Z,33.50
2018-08-03T11:39:10.223Z,33.50
2018-08-03T11:41:38.984Z,33.60
2018-08-03T11:44:07.800Z,33.60
2018-08-03T11:46:36.335Z,33.50
2018-08-03T11:49:04.804Z,33.60
2018-08-03T11:51:33.270Z,33.60
2018-08-03T11:54:01.761Z,33.60
2018-08-03T11:56:30.204Z,33.70
2018-08-03T11:58:58.649Z,33.80
2018-08-03T12:01:27.145Z,33.90
2018-08-03T12:03:55.870Z,34.00
2018-08-03T12:06:24.327Z,34.30
2018-08-03T12:08:52.793Z,34.40
2018-08-03T12:11:21.242Z,34.40
2018-08-03T12:16:17.847Z,34.30
2018-08-03T12:18:46.231Z,34.50
2018-08-03T12:21:14.648Z,34.60
2018-08-03T12:23:43.139Z,34.80
2018-08-03T12:26:11.560Z,34.80
2018-08-03T12:28:39.952Z,34.80
2018-08-03T12:31:08.444Z,34.90
2018-08-03T12:33:36.871Z,35.30
2018-08-03T12:38:33.440Z,35.60
2018-08-03T12:41:01.862Z,35.90
2018-08-03T12:43:30.296Z,36.10
2018-08-03T12:45:58.745Z,36.30
2018-08-03T12:48:27.275Z,36.50
2018-08-03T12:50:56.247Z,36.80
2018-08-03T12:53:24.673Z,36.80
2018-08-03T12:55:53.127Z,36.80
2018-08-03T12:58:21.571Z,36.80
2018-08-03T13:03:18.352Z,37.20
2018-08-03T13:05:46.777Z,37.10
2018-08-03T13:08:15.355Z,37.10
2018-08-03T13:10:44.477Z,37.30
2018-08-03T13:13:12.941Z,37.50
2018-08-03T13:15:41.459Z,37.90
2018-08-03T13:20:38.311Z,38.60
2018-08-03T13:23:06.839Z,38.50
2018-08-03T13:25:35.423Z,38.80
2018-08-03T13:28:04.003Z,38.80
2018-08-03T13:30:32.542Z,38.80
2018-08-03T13:33:11.506Z,39.10
2018-08-03T13:35:40.227Z,39.00
2018-08-03T13:38:09.763Z,39.30
2018-08-03T13:40:38.352Z,39.70
2018-08-03T13:43:06.803Z,39.60
2018-08-03T13:45:35.283Z,39.90
2018-08-03T13:48:03.844Z,40.40
2018-08-03T13:50:32.412Z,40.60
2018-08-03T13:53:00.864Z,40.80
2018-08-03T13:55:29.445Z,41.20
2018-08-03T13:57:58.002Z,41.30
2018-08-03T14:00:26.411Z,41.50
2018-08-03T14:02:54.895Z,41.80
2018-08-03T14:05:24.299Z,41.40
2018-08-03T14:10:21.698Z,41.50
2018-08-03T14:12:50.403Z,41.50
2018-08-03T14:15:18.970Z,41.50
2018-08-03T14:17:47.539Z,41.30
2018-08-03T14:22:44.170Z,41.50
2018-08-03T14:25:12.697Z,40.80
2018-08-03T14:27:41.273Z,39.90
2018-08-03T14:30:09.845Z,39.20
2018-08-03T14:32:38.352Z,38.50
2018-08-03T14:35:07.004Z,37.80
2018-08-03T14:37:35.468Z,37.50
2018-08-03T14:40:04.252Z,36.80
2018-08-03T14:42:33.271Z,36.60
2018-08-03T14:45:01.860Z,36.40
2018-08-03T14:47:30.400Z,36.10
2018-08-03T14:49:58.945Z,35.70
2018-08-03T14:52:27.484Z,35.60
2018-08-03T14:54:56.106Z,35.30
2018-08-03T14:57:25.985Z,35.30
2018-08-03T15:02:22.708Z,35.30
2018-08-03T15:04:51.883Z,34.90
2018-08-03T15:07:20.342Z,35.00
2018-08-03T15:09:48.880Z,35.00
2018-08-03T15:12:17.399Z,34.80
2018-08-03T15:14:45.933Z,34.90
2018-08-03T15:17:14.490Z,35.00
2018-08-03T15:19:42.971Z,35.20
2018-08-03T15:22:11.463Z,35.20
2018-08-03T15:24:40.084Z,35.40
2018-08-03T15:27:08.695Z,35.30
2018-08-03T15:29:37.229Z,35.30
2018-08-03T15:32:06.058Z,35.10
2018-08-03T15:34:34.677Z,35.10
2018-08-03T15:37:03.148Z,34.90
2018-08-03T15:39:31.551Z,34.90
2018-08-03T15:42:00.242Z,34.90
2018-08-03T15:44:29.023Z,34.90
2018-08-03T15:46:57.520Z,34.90
2018-08-03T15:49:26.035Z,35.00
2018-08-03T15:51:54.667Z,35.10
2018-08-03T15:54:23.364Z,35.20
2018-08-03T15:56:52.104Z,35.20
2018-08-03T15:59:20.683Z,35.30
2018-08-03T16:01:49.268Z,35.30
2018-08-03T16:04:17.844Z,35.30
2018-08-03T16:06:47.439Z,35.20
2018-08-03T16:09:16.354Z,35.20
2018-08-03T16:11:44.882Z,35.10
2018-08-03T16:14:13.429Z,35.10
2018-08-03T16:16:41.925Z,35.10
2018-08-03T16:19:10.364Z,35.10
2018-08-03T16:21:38.999Z,35.10
2018-08-03T16:29:04.095Z,35.00
2018-08-03T16:31:32.624Z,35.00
2018-08-03T16:36:29.463Z,34.80
2018-08-03T16:38:58.014Z,34.80
2018-08-03T16:41:26.853Z,34.80
2018-08-03T16:43:55.374Z,34.70
2018-08-03T16:46:23.951Z,34.70
2018-08-03T16:48:52.579Z,34.70
2018-08-03T16:51:21.043Z,34.70
2018-08-03T16:53:50.587Z,34.80
2018-08-03T16:56:19.059Z,34.70
2018-08-03T16:58:47.516Z,34.70
2018-08-03T17:01:16.104Z,34.70
2018-08-03T17:03:44.612Z,34.60
2018-08-03T17:06:13.063Z,34.60
2018-08-03T17:08:41.564Z,34.60
2018-08-03T17:11:10.077Z,34.60
2018-08-03T17:13:38.832Z,34.50
2018-08-03T17:16:08.131Z,34.50
2018-08-03T17:18:37.113Z,34.50
2018-08-03T17:21:05.704Z,34.40
2018-08-03T17:23:34.225Z,34.40
2018-08-03T17:28:30.957Z,34.30
2018-08-03T17:30:59.439Z,34.20
2018-08-03T17:33:28.015Z,34.20
2018-08-03T17:35:56.907Z,34.20
2018-08-03T17:38:25.453Z,34.20
2018-08-03T17:40:53.996Z,34.20
2018-08-03T17:45:51.195Z,34.10
2018-08-03T17:48:19.616Z,34.10
2018-08-03T17:50:48.132Z,34.00
2018-08-03T17:53:16.715Z,34.00
2018-08-03T17:55:45.215Z,34.00
2018-08-03T18:00:41.827Z,33.90
2018-08-03T18:03:10.361Z,33.80
2018-08-03T18:05:38.815Z,33.80
2018-08-03T18:08:07.315Z,33.70
2018-08-03T18:13:04.007Z,33.70
2018-08-03T18:15:34.147Z,33.70
2018-08-03T18:18:02.649Z,33.60
2018-08-03T18:20:31.123Z,33.60
2018-08-03T18:23:00.015Z,33.50
2018-08-03T18:25:28.599Z,33.40
2018-08-03T18:27:57.221Z,33.40
2018-08-03T18:30:25.762Z,33.20
2018-08-03T18:32:54.255Z,33.20
2018-08-03T18:35:22.832Z,33.10
2018-08-03T18:37:51.336Z,33.10
2018-08-03T18:40:19.844Z,33.00
2018-08-03T18:42:48.402Z,32.90
2018-08-03T18:47:45.034Z,32.70
2018-08-03T18:50:13.531Z,32.60
2018-08-03T18:52:42.058Z,32.60
2018-08-03T18:55:10.567Z,32.50
2018-08-03T18:57:39.082Z,32.40
2018-08-03T19:00:07.912Z,32.40
2018-08-03T19:02:36.464Z,32.30
2018-08-03T19:07:33.923Z,32.20
2018-08-03T19:10:02.469Z,32.10
2018-08-03T19:12:30.960Z,32.00
2018-08-03T19:14:59.463Z,32.00
2018-08-03T19:17:28.044Z,31.90
2018-08-03T19:19:56.545Z,31.80
2018-08-03T19:22:24.991Z,31.80
2018-08-03T19:24:54.539Z,31.80
2018-08-03T19:27:22.983Z,31.70
2018-08-03T19:29:51.532Z,31.70
2018-08-03T19:32:19.960Z,31.60
2018-08-03T19:34:48.751Z,31.50
2018-08-03T19:37:17.297Z,31.50
2018-08-03T19:39:45.801Z,31.50
2018-08-03T19:42:14.333Z,31.50
2018-08-03T19:47:11.035Z,31.30
2018-08-03T19:49:39.427Z,31.30
2018-08-03T19:52:09.033Z,31.20
2018-08-03T19:54:37.521Z,31.20
2018-08-03T19:57:06.068Z,31.10
2018-08-03T19:59:34.604Z,31.10
2018-08-03T20:02:03.125Z,31.00
2018-08-03T20:04:31.728Z,30.90
2018-08-03T20:07:00.263Z,30.90
2018-08-03T20:09:28.788Z,30.80
2018-08-03T20:11:57.358Z,30.80
2018-08-03T20:14:25.900Z,30.70
2018-08-03T20:16:54.347Z,30.70
2018-08-03T20:19:22.868Z,30.60
2018-08-03T20:21:51.431Z,30.60
2018-08-03T20:24:20.079Z,30.60
2018-08-03T20:26:48.552Z,30.60
2018-08-03T20:29:17.004Z,30.50
2018-08-03T20:31:45.507Z,30.50
2018-08-03T20:34:13.967Z,30.40
2018-08-03T20:36:42.442Z,30.40
2018-08-03T20:39:11.232Z,30.40
2018-08-03T20:41:39.727Z,30.30
2018-08-03T20:44:08.202Z,30.20
2018-08-03T20:46:36.732Z,30.20
2018-08-03T20:49:05.577Z,30.20
2018-08-03T20:51:34.027Z,30.10
2018-08-03T20:54:03.547Z,30.10
2018-08-03T20:56:32.031Z,30.10
2018-08-03T20:59:00.511Z,30.00
2018-08-03T21:01:28.994Z,30.00
2018-08-03T21:03:57.487Z,29.80
2018-08-03T21:06:26.088Z,29.80
2018-08-03T21:11:22.907Z,29.70
2018-08-03T21:13:51.469Z,29.70
2018-08-03T21:16:19.856Z,29.70
2018-08-03T21:18:48.283Z,29.70
2018-08-03T21:21:16.691Z,29.60
2018-08-03T21:23:45.112Z,29.60
2018-08-03T21:26:13.539Z,29.50
2018-08-03T21:28:41.991Z,29.50
2018-08-03T21:31:10.475Z,29.50
2018-08-03T21:33:38.879Z,29.40
2018-08-03T21:38:35.627Z,29.40
2018-08-03T21:41:04.063Z,29.40
2018-08-03T21:43:32.499Z,29.40
2018-08-03T21:50:57.235Z,29.30
2018-08-03T21:55:54.560Z,29.30
2018-08-03T21:58:23.210Z,29.30
2018-08-03T22:00:51.947Z,29.30
2018-08-03T22:03:20.470Z,29.20
2018-08-03T22:05:49.072Z,29.20
2018-08-03T22:08:17.684Z,29.10
2018-08-03T22:10:46.222Z,29.00
2018-08-03T22:13:14.656Z,29.00
2018-08-03T22:15:43.273Z,28.90
2018-08-03T22:20:40.231Z,28.80
2018-08-03T22:23:08.959Z,28.80
2018-08-03T22:25:37.691Z,28.80
2018-08-03T22:28:06.574Z,28.70
2018-08-03T22:30:35.196Z,28.70
2018-08-03T22:33:03.753Z,28.70
2018-08-03T22:35:32.279Z,28.70
2018-08-03T22:38:00.739Z,28.60
2018-08-03T22:42:57.528Z,28.50
2018-08-03T22:45:26.009Z,28.50
2018-08-03T22:50:22.797Z,28.40
2018-08-03T22:52:51.315Z,28.40
2018-08-03T22:55:19.783Z,28.30
2018-08-03T22:57:48.584Z,28.30
2018-08-03T23:00:17.067Z,28.20
2018-08-03T23:02:45.504Z,28.20
2018-08-03T23:05:14.028Z,28.20
2018-08-03T23:07:42.493Z,28.10
2018-08-03T23:10:10.983Z,28.10
2018-08-03T23:12:39.444Z,28.00
2018-08-03T23:15:08.554Z,28.00
2018-08-03T23:17:37.430Z,28.00
2018-08-03T23:20:06.296Z,27.90
2018-08-03T23:22:34.847Z,27.90
2018-08-03T23:29:59.683Z,27.80
2018-08-03T23:32:28.151Z,27.80
2018-08-03T23:34:56.615Z,27.80
2018-08-03T23:37:25.091Z,27.80
2018-08-03T23:39:53.579Z,27.70
2018-08-03T23:42:22.024Z,27.70
2018-08-03T23:44:50.503Z,27.70
2018-08-03T23:47:19.053Z,27.70
2018-08-03T23:49:47.696Z,27.60
2018-08-03T23:52:16.194Z,27.60
2018-08-03T23:54:44.688Z,27.60
2018-08-03T23:57:13.203Z,27.60
2018-08-03T23:59:41.800Z,27.60
